Portada
METAR-TAF:

METAR-TAF

Aeropuertos :

Aeropuerto de San Sebastián

San Sebastián, España

latitud: 43-21N, longitud: 001-48W, altitud: 5 m

Observación

El informe se hizo hace 42 minutos, a las 03:00 UTC
Viento 3 kt del sur-suroeste, variando entre sur y oeste-suroeste
Temperatura 15°C
Humedad 100%
Presión 1018 hPa
Visibilidad 10 km o más

METAR: LESO 200300Z AUTO 20003KT 170V240 9999 NCD 15/15 Q1018

Hora: 05:42 (03:42 UTC)

Pronóstico

El informe se hizo hace 4 horas y 42 minutos, a las 23:00 UTC
Pronóstico válido del 20 a las 00 UTC al 20 a las 24 UTC
Viento 5 kt con dirección variable
Visibilidad 10 km o más
Escasas nubes a una altura de 2000 ft
Nubes dispersas a una altura de 3500 ft

TAF: LESO 192300Z 2000/2024 VRB05KT 9999 FEW020 SCT035 TX25/2014Z TN16/2005Z

Observaciones y pronósticos meteorológicos de más de 4000 aeropuertos (mensajes METAR y TAF).

Los puntos amarillos y rojos representan las estaciones disponibles.

Ponga el ratón en el punto deseado para ver el nombre de la estación.

Haga clic para ver las observaciones y los pronósticos meteorológicos.

Para cambiar el mapa : haga clic en los botones verdes con una cruz de color negro para hacer un zoom, en el botón verde con un guión para alejar o en las flechas verdes para mapas adyacentes.


METAR-TAF: